createdAt,value
2022-08-28T00:00:22.041Z,93.76
2022-08-28T00:01:25.103Z,93.73
2022-08-28T00:02:28.601Z,93.58
2022-08-28T00:03:32.272Z,93.56
2022-08-28T00:04:35.861Z,93.68
2022-08-28T00:05:40.042Z,93.77
2022-08-28T00:06:42.082Z,93.81
2022-08-28T00:07:47.788Z,93.59
2022-08-28T00:08:50.188Z,93.58
2022-08-28T00:09:53.210Z,93.77
2022-08-28T00:10:55.178Z,93.91
2022-08-28T00:11:58.205Z,93.80
2022-08-28T00:13:00.240Z,93.77
2022-08-28T00:14:04.670Z,93.80
2022-08-28T00:15:09.720Z,93.67
2022-08-28T00:16:18.069Z,93.96
2022-08-28T00:17:20.337Z,93.59
2022-08-28T00:18:25.632Z,93.73
2022-08-28T00:19:27.897Z,94.01
2022-08-28T00:20:31.719Z,94.08
2022-08-28T00:21:33.949Z,94.10
2022-08-28T00:22:38.243Z,94.05
2022-08-28T00:23:42.492Z,94.00
2022-08-28T00:24:46.018Z,94.00
2022-08-28T00:25:48.044Z,94.14
2022-08-28T00:27:08.453Z,94.34
2022-08-28T00:28:18.435Z,94.15
2022-08-28T00:29:27.446Z,94.38
2022-08-28T00:30:32.835Z,94.50
2022-08-28T00:31:38.552Z,94.28
2022-08-28T00:32:40.680Z,94.13
2022-08-28T00:33:46.765Z,94.11
2022-08-28T00:34:50.531Z,94.20
2022-08-28T00:35:54.584Z,94.56
2022-08-28T00:36:56.617Z,94.43
2022-08-28T00:38:00.152Z,94.48
2022-08-28T00:39:02.227Z,94.18
2022-08-28T00:40:05.897Z,94.24
2022-08-28T00:41:08.255Z,94.71
2022-08-28T00:42:11.970Z,94.59
2022-08-28T00:43:34.845Z,94.52
2022-08-28T00:44:36.880Z,94.54
2022-08-28T00:45:40.374Z,94.58
2022-08-28T00:46:44.945Z,94.66
2022-08-28T00:47:48.146Z,94.94
2022-08-28T00:48:51.534Z,94.47
2022-08-28T00:49:57.081Z,94.64
2022-08-28T00:51:17.743Z,95.08
2022-08-28T00:52:21.805Z,94.67
2022-08-28T00:53:27.099Z,94.74
2022-08-28T00:54:34.762Z,94.80
2022-08-28T00:55:37.832Z,94.70
2022-08-28T00:56:40.855Z,94.78
2022-08-28T00:57:49.209Z,94.79
2022-08-28T00:58:56.187Z,95.12
2022-08-28T00:59:59.315Z,95.06
2022-08-28T01:01:01.602Z,95.13
2022-08-28T01:02:07.124Z,94.83
2022-08-28T01:03:09.287Z,95.25
2022-08-28T01:04:17.083Z,94.92
2022-08-28T01:05:19.365Z,95.21
2022-08-28T01:06:23.067Z,94.95
2022-08-28T01:07:25.136Z,95.45
2022-08-28T01:08:31.273Z,95.59
2022-08-28T01:09:35.026Z,95.32
2022-08-28T01:10:38.626Z,95.59
2022-08-28T01:11:44.176Z,95.33
2022-08-28T01:12:49.917Z,95.60
2022-08-28T01:13:54.508Z,95.83
2022-08-28T01:15:00.072Z,95.51
2022-08-28T01:16:03.937Z,95.96
2022-08-28T01:17:09.347Z,95.56
2022-08-28T01:18:15.624Z,96.03
2022-08-28T01:19:27.589Z,95.83
2022-08-28T01:20:34.942Z,95.81
2022-08-28T01:21:47.157Z,95.86
2022-08-28T01:22:59.181Z,95.67
2022-08-28T01:24:06.871Z,95.81
2022-08-28T01:25:14.121Z,96.20
2022-08-28T01:26:16.173Z,96.09
2022-08-28T01:27:19.354Z,96.17
2022-08-28T01:28:21.411Z,96.12
2022-08-28T01:29:24.453Z,96.31
2022-08-28T01:30:26.931Z,95.95
2022-08-28T01:31:32.654Z,96.21
2022-08-28T01:32:38.080Z,96.41
2022-08-28T01:33:43.141Z,96.36
2022-08-28T01:34:45.139Z,95.99
2022-08-28T01:35:48.795Z,96.25
2022-08-28T01:36:51.060Z,96.31
2022-08-28T01:37:55.885Z,96.32
2022-08-28T01:39:01.525Z,96.42
2022-08-28T01:40:09.396Z,96.34
2022-08-28T01:41:12.737Z,96.21
2022-08-28T01:42:16.206Z,96.26
2022-08-28T01:43:21.524Z,96.51
2022-08-28T01:44:28.778Z,96.31
2022-08-28T01:45:31.403Z,96.25
2022-08-28T01:46:34.646Z,96.55
2022-08-28T01:47:36.812Z,96.67
2022-08-28T01:48:43.572Z,96.72
2022-08-28T01:49:45.676Z,96.35
2022-08-28T01:50:48.784Z,96.39
2022-08-28T01:51:51.277Z,96.57
2022-08-28T01:52:57.789Z,96.53
2022-08-28T01:54:00.564Z,96.88
2022-08-28T01:55:07.921Z,96.56
2022-08-28T01:56:13.151Z,96.83
2022-08-28T01:57:16.484Z,96.74
2022-08-28T01:58:19.921Z,96.97
2022-08-28T01:59:23.901Z,96.60
2022-08-28T02:00:27.677Z,96.73
2022-08-28T02:01:30.937Z,96.94
2022-08-28T02:02:33.073Z,97.11
2022-08-28T02:03:36.153Z,97.03
2022-08-28T02:04:39.315Z,96.87
2022-08-28T02:05:41.472Z,97.09
2022-08-28T02:06:44.779Z,96.90
2022-08-28T02:07:47.141Z,97.04
2022-08-28T02:08:54.718Z,96.95
2022-08-28T02:09:57.777Z,96.86
2022-08-28T02:11:01.249Z,97.13
2022-08-28T02:12:05.615Z,97.43
2022-08-28T02:13:08.780Z,97.40
2022-08-28T02:14:11.944Z,97.11
2022-08-28T02:15:14.034Z,97.55
2022-08-28T02:16:17.606Z,97.51
2022-08-28T02:17:19.761Z,97.34
2022-08-28T02:18:22.930Z,97.26
2022-08-28T02:19:25.028Z,97.54
2022-08-28T02:20:29.310Z,97.28
2022-08-28T02:21:31.490Z,97.40
2022-08-28T02:22:34.821Z,97.28
2022-08-28T02:23:37.924Z,97.35
2022-08-28T02:24:41.557Z,97.27
2022-08-28T02:25:43.651Z,97.19
2022-08-28T02:26:48.137Z,97.15
2022-08-28T02:27:50.346Z,97.48
2022-08-28T02:28:53.426Z,97.35
2022-08-28T02:29:55.665Z,97.60
2022-08-28T02:30:59.726Z,97.43
2022-08-28T02:32:01.959Z,97.70
2022-08-28T02:33:05.453Z,97.46
2022-08-28T02:34:07.553Z,97.67
2022-08-28T02:35:12.305Z,97.78
2022-08-28T02:36:15.578Z,97.57
2022-08-28T02:37:18.919Z,97.75
2022-08-28T02:38:22.526Z,97.89
2022-08-28T02:39:25.629Z,97.85
2022-08-28T02:40:28.293Z,97.95
2022-08-28T02:41:31.468Z,97.58
2022-08-28T02:42:34.984Z,98.04
2022-08-28T02:43:38.234Z,97.72
2022-08-28T02:44:40.339Z,98.17
2022-08-28T02:45:43.512Z,97.92
2022-08-28T02:46:45.601Z,98.14
2022-08-28T02:47:49.072Z,97.82
2022-08-28T02:48:51.153Z,98.01
2022-08-28T02:49:54.315Z,97.99
2022-08-28T02:50:59.063Z,97.93
2022-08-28T02:52:02.087Z,98.43
2022-08-28T02:53:04.177Z,98.19
2022-08-28T02:54:07.330Z,98.47
2022-08-28T02:55:12.485Z,98.12
2022-08-28T02:56:15.872Z,98.41
2022-08-28T02:57:17.997Z,98.33
2022-08-28T02:58:22.791Z,98.30
2022-08-28T02:59:26.120Z,98.35
2022-08-28T03:00:28.281Z,98.69
2022-08-28T03:01:31.884Z,98.78
2022-08-28T03:02:34.198Z,98.49
2022-08-28T03:03:37.450Z,98.49
2022-08-28T03:04:43.116Z,98.78
2022-08-28T03:05:46.235Z,98.83
2022-08-28T03:06:49.881Z,98.47
2022-08-28T03:07:53.540Z,98.66
2022-08-28T03:08:56.968Z,98.83
2022-08-28T03:09:59.045Z,98.78
2022-08-28T03:11:02.319Z,98.85
2022-08-28T03:12:05.575Z,98.74
2022-08-28T03:13:08.692Z,98.74
2022-08-28T03:14:12.203Z,98.91
2022-08-28T03:15:15.383Z,98.88
2022-08-28T03:16:18.095Z,98.95
2022-08-28T03:17:22.422Z,98.88
2022-08-28T03:18:25.546Z,99.06
2022-08-28T03:19:29.174Z,98.61
2022-08-28T03:20:32.296Z,98.67
2022-08-28T03:21:34.345Z,98.96
2022-08-28T03:22:55.333Z,98.81
2022-08-28T03:23:58.515Z,98.90
2022-08-28T03:25:00.628Z,98.83
2022-08-28T03:26:06.056Z,98.94
2022-08-28T03:27:08.980Z,98.88
2022-08-28T03:28:12.355Z,98.77
2022-08-28T03:29:17.174Z,98.94
2022-08-28T03:30:20.727Z,99.10
2022-08-28T03:31:26.769Z,98.88
2022-08-28T03:32:29.458Z,99.00
2022-08-28T03:33:33.786Z,99.50
2022-08-28T03:34:36.011Z,99.22
2022-08-28T03:35:39.176Z,99.14
2022-08-28T03:36:42.266Z,99.06
2022-08-28T03:37:44.531Z,99.15
2022-08-28T03:38:47.618Z,99.41
2022-08-28T03:39:49.973Z,99.14
2022-08-28T03:40:53.532Z,99.35
2022-08-28T03:41:55.754Z,99.50
2022-08-28T03:42:59.502Z,99.47
2022-08-28T03:44:02.189Z,99.37
2022-08-28T03:45:09.637Z,99.14
2022-08-28T03:46:16.398Z,99.09
2022-08-28T03:47:19.524Z,99.49
2022-08-28T03:48:24.406Z,99.32
2022-08-28T03:49:27.465Z,99.05
2022-08-28T03:50:31.447Z,99.12
2022-08-28T03:51:36.232Z,99.15
2022-08-28T03:52:39.472Z,99.46
2022-08-28T03:53:43.458Z,99.47
2022-08-28T03:54:45.487Z,99.49
2022-08-28T03:55:49.010Z,99.37
2022-08-28T03:56:52.208Z,99.58
2022-08-28T03:57:55.251Z,99.28
2022-08-28T03:59:00.281Z,99.58
2022-08-28T04:00:05.742Z,99.64
2022-08-28T04:01:15.473Z,99.69
2022-08-28T04:02:20.503Z,99.41
2022-08-28T04:03:22.654Z,99.36
2022-08-28T04:04:25.754Z,99.44
2022-08-28T04:05:28.629Z,99.77
2022-08-28T04:06:32.194Z,99.38
2022-08-28T04:07:35.117Z,99.63
2022-08-28T04:08:38.359Z,99.67
2022-08-28T04:09:40.460Z,99.55
2022-08-28T04:10:44.079Z,99.71
2022-08-28T04:11:46.162Z,99.46
2022-08-28T04:12:49.222Z,99.61
2022-08-28T04:13:52.303Z,99.21
2022-08-28T04:14:55.110Z,99.23
2022-08-28T04:15:59.611Z,99.51
2022-08-28T04:17:03.248Z,99.37
2022-08-28T04:18:06.782Z,99.74
2022-08-28T04:19:08.912Z,99.68
2022-08-28T04:20:12.690Z,99.70
2022-08-28T04:21:16.993Z,99.55
2022-08-28T04:22:20.052Z,99.71
2022-08-28T04:23:25.709Z,99.74
2022-08-28T04:24:28.804Z,99.66
2022-08-28T04:25:31.038Z,99.46
2022-08-28T04:26:36.652Z,99.86
2022-08-28T04:27:38.767Z,99.80
2022-08-28T04:28:43.245Z,99.60
2022-08-28T04:29:45.283Z,99.89
2022-08-28T04:30:48.362Z,99.53
2022-08-28T04:31:50.600Z,99.58
2022-08-28T04:32:55.145Z,99.64
2022-08-28T04:33:58.695Z,99.97
2022-08-28T04:35:01.841Z,99.39
2022-08-28T04:36:05.352Z,99.77
2022-08-28T04:37:08.445Z,99.61
2022-08-28T04:38:10.533Z,99.73
2022-08-28T04:39:13.836Z,99.95
2022-08-28T04:40:16.251Z,99.93
2022-08-28T04:41:19.510Z,99.90
2022-08-28T04:42:21.569Z,99.73
2022-08-28T04:43:24.850Z,99.70
2022-08-28T04:44:27.148Z,100.00
2022-08-28T04:45:31.011Z,100.00
2022-08-28T04:46:33.523Z,99.75
2022-08-28T04:47:37.245Z,100.00
2022-08-28T04:48:41.779Z,100.00
2022-08-28T04:49:44.851Z,100.00
2022-08-28T04:50:49.372Z,100.00
2022-08-28T04:51:52.790Z,99.86
2022-08-28T04:52:54.858Z,100.00
2022-08-28T04:53:58.635Z,100.00
2022-08-28T04:55:00.824Z,100.00
2022-08-28T04:56:06.030Z,99.99
2022-08-28T04:57:08.612Z,100.00
2022-08-28T04:58:13.371Z,100.00
2022-08-28T04:59:16.433Z,99.97
2022-08-28T05:00:19.740Z,100.00
2022-08-28T05:01:24.501Z,100.00
2022-08-28T05:02:27.840Z,100.00
2022-08-28T05:03:29.944Z,100.00
2022-08-28T05:04:34.361Z,100.00
2022-08-28T05:05:41.474Z,100.00
2022-08-28T05:06:46.457Z,100.00
2022-08-28T05:07:48.699Z,100.00
2022-08-28T05:08:51.742Z,100.00
2022-08-28T05:09:53.947Z,100.00
2022-08-28T05:10:58.064Z,99.96
2022-08-28T05:12:02.974Z,100.00
2022-08-28T05:13:06.057Z,100.00
2022-08-28T05:14:12.770Z,100.00
2022-08-28T05:15:19.236Z,100.00
2022-08-28T05:16:22.439Z,100.00
2022-08-28T05:17:25.498Z,100.00
2022-08-28T05:18:28.310Z,100.00
2022-08-28T05:19:35.229Z,100.00
2022-08-28T05:20:38.572Z,99.68
2022-08-28T05:21:42.636Z,99.72
2022-08-28T05:22:44.810Z,99.80
2022-08-28T05:23:48.930Z,99.65
2022-08-28T05:24:52.012Z,100.00
2022-08-28T05:25:54.197Z,99.85
2022-08-28T05:26:57.704Z,99.99
2022-08-28T05:27:59.828Z,99.85
2022-08-28T05:29:03.075Z,99.44
2022-08-28T05:30:06.546Z,99.33
2022-08-28T05:31:11.596Z,99.25
2022-08-28T05:32:14.722Z,99.60
2022-08-28T05:33:17.151Z,99.10
2022-08-28T05:34:20.764Z,99.38
2022-08-28T05:35:24.939Z,99.47
2022-08-28T05:36:32.500Z,98.97
2022-08-28T05:37:35.517Z,99.28
2022-08-28T05:38:39.776Z,99.06
2022-08-28T05:39:41.782Z,99.08
2022-08-28T05:40:46.047Z,98.96
2022-08-28T05:41:48.169Z,99.04
2022-08-28T05:42:51.501Z,98.54
2022-08-28T05:43:54.012Z,98.67
2022-08-28T05:44:58.852Z,98.36
2022-08-28T05:46:02.436Z,98.43
2022-08-28T05:47:08.810Z,98.65
2022-08-28T05:48:11.962Z,98.15
2022-08-28T05:49:15.993Z,98.21
2022-08-28T05:50:18.899Z,98.23
2022-08-28T05:51:26.577Z,98.18
2022-08-28T05:52:30.676Z,97.79
2022-08-28T05:53:34.301Z,97.90
2022-08-28T05:54:37.409Z,97.71
2022-08-28T05:55:40.568Z,97.38
2022-08-28T05:56:45.287Z,97.39
2022-08-28T05:57:47.263Z,97.26
2022-08-28T05:58:50.336Z,97.04
2022-08-28T05:59:53.636Z,96.88
2022-08-28T06:00:58.396Z,96.75
2022-08-28T06:02:04.317Z,96.51
2022-08-28T06:03:06.697Z,96.49
2022-08-28T06:04:13.056Z,96.37
2022-08-28T06:05:15.560Z,95.96
2022-08-28T06:06:18.704Z,96.02
2022-08-28T06:07:23.191Z,95.51
2022-08-28T06:08:25.328Z,95.72
2022-08-28T06:09:30.358Z,94.98
2022-08-28T06:10:32.489Z,95.09
2022-08-28T06:11:38.754Z,94.83
2022-08-28T06:12:45.376Z,94.65
2022-08-28T06:13:48.920Z,94.67
2022-08-28T06:14:52.069Z,94.34
2022-08-28T06:15:57.420Z,93.93
2022-08-28T06:17:01.101Z,94.01
2022-08-28T06:18:03.195Z,93.55
2022-08-28T06:19:06.991Z,93.58
2022-08-28T06:20:10.752Z,93.07
2022-08-28T06:21:14.301Z,93.19
2022-08-28T06:22:18.442Z,92.78
2022-08-28T06:23:24.095Z,92.79
2022-08-28T06:24:28.783Z,92.47
2022-08-28T06:25:31.283Z,92.25
2022-08-28T06:26:34.612Z,92.29
2022-08-28T06:27:39.295Z,92.30
2022-08-28T06:28:42.338Z,92.05
2022-08-28T06:29:44.806Z,92.38
2022-08-28T06:31:15.922Z,92.24
2022-08-28T06:32:11.324Z,92.14
2022-08-28T06:33:16.376Z,91.78
2022-08-28T06:34:20.616Z,91.72
2022-08-28T06:35:22.924Z,91.62
2022-08-28T06:36:27.835Z,91.02
2022-08-28T06:37:30.155Z,90.94
2022-08-28T06:38:35.182Z,90.40
2022-08-28T06:39:37.289Z,90.27
2022-08-28T06:40:42.180Z,90.21
2022-08-28T06:41:45.220Z,89.82
2022-08-28T06:42:47.276Z,89.11
2022-08-28T06:43:50.367Z,89.21
2022-08-28T06:44:52.483Z,88.74
2022-08-28T06:45:57.608Z,88.31
2022-08-28T06:47:00.830Z,87.89
2022-08-28T06:48:03.319Z,87.78
2022-08-28T06:49:08.286Z,87.68
2022-08-28T06:50:10.889Z,87.11
2022-08-28T06:51:15.964Z,87.05
2022-08-28T06:52:18.253Z,86.76
2022-08-28T06:53:24.961Z,86.52
2022-08-28T06:54:30.989Z,86.26
2022-08-28T06:55:34.399Z,86.15
2022-08-28T06:56:38.370Z,85.67
2022-08-28T06:57:41.467Z,85.70
2022-08-28T06:58:50.543Z,85.44
2022-08-28T06:59:56.857Z,85.20
2022-08-28T07:01:04.701Z,85.25
2022-08-28T07:02:09.359Z,84.93
2022-08-28T07:03:12.545Z,84.70
2022-08-28T07:04:15.832Z,84.61
2022-08-28T07:05:17.975Z,84.20
2022-08-28T07:06:22.855Z,84.16
2022-08-28T07:07:31.705Z,83.78
2022-08-28T07:08:37.662Z,83.59
2022-08-28T07:09:41.188Z,83.27
2022-08-28T07:10:44.269Z,82.98
2022-08-28T07:11:46.723Z,83.00
2022-08-28T07:12:50.913Z,82.86
2022-08-28T07:13:53.556Z,82.50
2022-08-28T07:14:56.602Z,82.41
2022-08-28T07:15:59.660Z,82.38
2022-08-28T07:17:03.008Z,82.33
2022-08-28T07:18:05.105Z,82.03
2022-08-28T07:19:10.537Z,80.94
2022-08-28T07:20:12.950Z,79.97
2022-08-28T07:21:16.198Z,79.64
2022-08-28T07:22:18.391Z,79.23
2022-08-28T07:23:21.497Z,77.67
2022-08-28T07:24:23.585Z,77.80
2022-08-28T07:25:28.111Z,77.48
2022-08-28T07:26:31.205Z,77.19
2022-08-28T07:27:36.079Z,76.92
2022-08-28T07:28:39.608Z,75.93
2022-08-28T07:29:41.671Z,75.03
2022-08-28T07:30:44.908Z,74.73
2022-08-28T07:31:51.540Z,74.00
2022-08-28T07:32:53.580Z,73.87
2022-08-28T07:33:57.198Z,73.84
2022-08-28T07:34:59.828Z,73.54
2022-08-28T07:36:07.070Z,73.51
2022-08-28T07:37:15.100Z,73.56
2022-08-28T07:38:17.566Z,73.43
2022-08-28T07:39:20.904Z,73.51
2022-08-28T07:40:23.117Z,73.30
2022-08-28T07:41:30.085Z,73.12
2022-08-28T07:42:50.861Z,73.16
2022-08-28T07:44:11.441Z,72.76
2022-08-28T07:45:13.522Z,71.82
2022-08-28T07:46:16.553Z,71.97
2022-08-28T07:47:20.271Z,71.85
2022-08-28T07:48:22.738Z,71.09
2022-08-28T07:49:26.722Z,71.32
2022-08-28T07:50:28.840Z,70.46
2022-08-28T07:51:32.098Z,70.60
2022-08-28T07:52:34.177Z,70.78
2022-08-28T07:53:37.506Z,70.57
2022-08-28T07:54:40.553Z,69.52
2022-08-28T07:55:43.690Z,69.70
2022-08-28T07:56:47.519Z,69.97
2022-08-28T07:57:50.595Z,69.87
2022-08-28T07:58:56.238Z,69.99
2022-08-28T07:59:59.441Z,69.54
2022-08-28T08:01:01.528Z,69.51
2022-08-28T08:02:05.357Z,69.53
2022-08-28T08:03:07.779Z,69.26
2022-08-28T08:04:13.480Z,69.21
2022-08-28T08:05:16.687Z,69.28
2022-08-28T08:06:19.043Z,68.98
2022-08-28T08:07:22.205Z,68.64
2022-08-28T08:08:25.107Z,67.68
2022-08-28T08:09:28.541Z,68.19
2022-08-28T08:10:34.297Z,68.14
2022-08-28T08:11:37.929Z,68.06
2022-08-28T08:12:42.725Z,68.08
2022-08-28T08:13:47.777Z,68.34
2022-08-28T08:14:53.126Z,68.67
2022-08-28T08:15:56.415Z,68.29
2022-08-28T08:17:02.140Z,68.33
2022-08-28T08:18:05.571Z,68.11
2022-08-28T08:19:10.167Z,68.16
2022-08-28T08:20:13.717Z,67.65
2022-08-28T08:21:19.590Z,66.70
2022-08-28T08:22:23.143Z,66.98
2022-08-28T08:23:25.972Z,66.66
2022-08-28T08:24:30.475Z,66.21
2022-08-28T08:25:33.619Z,65.94
2022-08-28T08:26:37.921Z,65.77
2022-08-28T08:27:43.126Z,65.83
2022-08-28T08:28:47.541Z,65.59
2022-08-28T08:29:51.005Z,65.77
2022-08-28T08:31:04.712Z,64.87
2022-08-28T08:32:09.654Z,65.36
2022-08-28T08:33:13.087Z,65.08
2022-08-28T08:34:16.656Z,64.88
2022-08-28T08:35:19.823Z,64.78
2022-08-28T08:36:24.432Z,64.93
2022-08-28T08:37:27.414Z,65.28
2022-08-28T08:38:30.575Z,65.21
2022-08-28T08:39:34.200Z,64.73
2022-08-28T08:40:36.297Z,65.01
2022-08-28T08:41:47.858Z,64.46
2022-08-28T08:42:57.154Z,64.01
2022-08-28T08:44:03.835Z,63.84
2022-08-28T08:45:13.686Z,63.26
2022-08-28T08:46:15.818Z,62.52
2022-08-28T08:47:23.479Z,62.98
2022-08-28T08:48:29.271Z,63.01
2022-08-28T08:49:36.031Z,62.83
2022-08-28T08:50:39.007Z,62.96
2022-08-28T08:51:46.736Z,63.15
2022-08-28T08:53:00.977Z,62.94
2022-08-28T08:54:06.005Z,63.18
2022-08-28T08:55:21.994Z,63.65
2022-08-28T08:56:25.162Z,63.55
2022-08-28T08:57:38.992Z,63.73
2022-08-28T08:58:48.812Z,63.67
2022-08-28T08:59:51.449Z,62.96
2022-08-28T09:01:01.148Z,62.45
2022-08-28T09:02:10.711Z,62.83
2022-08-28T09:03:19.445Z,62.68
2022-08-28T09:04:34.304Z,63.05
2022-08-28T09:05:45.188Z,62.55
2022-08-28T09:06:50.969Z,62.46
2022-08-28T09:07:57.741Z,62.41
2022-08-28T09:09:07.059Z,61.55
2022-08-28T09:10:12.328Z,61.65
2022-08-28T09:11:31.629Z,61.76
2022-08-28T09:12:50.152Z,61.74
2022-08-28T09:14:02.938Z,61.52
2022-08-28T09:15:13.061Z,61.43
2022-08-28T09:16:22.151Z,61.35
2022-08-28T09:17:31.517Z,61.18
2022-08-28T09:18:36.087Z,61.61
2022-08-28T09:19:40.512Z,61.26
2022-08-28T09:20:44.136Z,61.49
2022-08-28T09:21:48.153Z,61.18
2022-08-28T09:22:51.828Z,60.90
2022-08-28T09:23:54.242Z,61.29
2022-08-28T09:24:57.446Z,60.91
2022-08-28T09:26:02.097Z,60.88
2022-08-28T09:27:12.307Z,60.25
2022-08-28T09:28:20.482Z,60.11
2022-08-28T09:29:32.529Z,60.04
2022-08-28T09:30:36.397Z,59.68
2022-08-28T09:31:42.269Z,59.92
2022-08-28T09:32:57.999Z,59.51
2022-08-28T09:34:23.903Z,59.68
2022-08-28T09:35:29.563Z,60.03
2022-08-28T09:36:33.687Z,60.05
2022-08-28T09:37:38.025Z,60.18
2022-08-28T09:38:40.016Z,60.39
2022-08-28T09:39:46.668Z,60.47
2022-08-28T09:41:25.034Z,60.62
2022-08-28T09:42:59.945Z,60.53
2022-08-28T09:44:02.104Z,60.63
2022-08-28T09:45:18.281Z,60.35
2022-08-28T09:46:24.108Z,60.37
2022-08-28T09:47:48.692Z,60.48
2022-08-28T09:48:52.504Z,60.64
2022-08-28T09:49:55.555Z,60.57
2022-08-28T09:51:03.197Z,60.79
2022-08-28T09:52:25.142Z,60.76
2022-08-28T09:53:29.157Z,60.90
2022-08-28T09:54:35.498Z,60.96
2022-08-28T09:55:44.811Z,61.03
2022-08-28T09:56:48.579Z,61.03
2022-08-28T09:57:50.910Z,60.91
2022-08-28T09:58:59.471Z,60.90
2022-08-28T10:00:02.142Z,61.13
2022-08-28T10:01:35.749Z,61.38
2022-08-28T10:02:46.007Z,61.59
2022-08-28T10:03:54.364Z,60.59
2022-08-28T10:05:03.887Z,60.59
2022-08-28T10:06:12.390Z,60.60
2022-08-28T10:07:21.926Z,60.27
2022-08-28T10:08:37.836Z,60.28
2022-08-28T10:09:47.967Z,60.21
2022-08-28T10:10:56.007Z,60.47
2022-08-28T10:12:06.610Z,60.25
2022-08-28T10:13:10.835Z,59.87
2022-08-28T10:14:29.613Z,60.19
2022-08-28T10:15:47.453Z,60.16
2022-08-28T10:17:00.464Z,60.26
2022-08-28T10:18:18.133Z,60.54
2022-08-28T10:19:40.983Z,59.96
2022-08-28T10:20:51.714Z,60.01
2022-08-28T10:22:04.974Z,60.08
2022-08-28T10:23:17.650Z,60.03
2022-08-28T10:24:35.655Z,60.09
2022-08-28T10:25:49.608Z,59.71
2022-08-28T10:27:00.638Z,59.37
2022-08-28T10:28:25.748Z,59.40
2022-08-28T10:29:40.003Z,59.88
2022-08-28T10:30:57.316Z,60.29
2022-08-28T10:32:15.861Z,60.88
2022-08-28T10:33:34.422Z,61.23
2022-08-28T10:34:53.529Z,61.43
2022-08-28T10:36:02.671Z,62.10
2022-08-28T10:37:14.574Z,62.61
2022-08-28T10:38:21.554Z,62.82
2022-08-28T10:39:35.387Z,63.18
2022-08-28T10:40:42.031Z,63.27
2022-08-28T10:41:47.310Z,63.40
2022-08-28T10:42:56.820Z,63.48
2022-08-28T10:44:04.876Z,63.45
2022-08-28T10:45:11.863Z,63.65
2022-08-28T10:46:17.739Z,63.58
2022-08-28T10:47:24.770Z,63.35
2022-08-28T10:48:33.766Z,63.36
2022-08-28T10:49:40.156Z,63.24
2022-08-28T10:50:47.028Z,63.17
2022-08-28T10:51:52.258Z,63.53
2022-08-28T10:53:01.010Z,63.34
2022-08-28T10:54:09.094Z,63.34
2022-08-28T10:55:16.948Z,63.44
2022-08-28T10:56:23.340Z,63.50
2022-08-28T10:57:36.089Z,63.38
2022-08-28T10:58:42.521Z,63.30
2022-08-28T10:59:51.553Z,62.34
2022-08-28T11:00:58.054Z,62.33
2022-08-28T11:02:02.171Z,61.94
2022-08-28T11:03:27.108Z,62.20
2022-08-28T11:04:33.877Z,61.99
2022-08-28T11:05:41.413Z,61.92
2022-08-28T11:06:48.954Z,61.90
2022-08-28T11:07:55.462Z,61.89
2022-08-28T11:10:59.038Z,61.25
2022-08-28T11:12:03.930Z,60.53
2022-08-28T11:13:09.579Z,59.60
2022-08-28T11:14:24.540Z,58.83
2022-08-28T11:15:53.507Z,58.64
2022-08-28T11:16:58.790Z,58.11
2022-08-28T11:18:41.533Z,56.30
2022-08-28T11:20:01.689Z,55.32
2022-08-28T11:21:09.912Z,55.25
2022-08-28T11:22:17.782Z,53.80
2022-08-28T11:23:24.277Z,54.29
2022-08-28T11:24:47.081Z,53.10
2022-08-28T11:25:54.722Z,52.94
2022-08-28T11:27:07.447Z,52.33
2022-08-28T11:28:16.250Z,52.72
2022-08-28T11:29:52.713Z,52.66
2022-08-28T11:31:30.838Z,52.61
2022-08-28T11:32:43.578Z,52.76
2022-08-28T11:33:52.977Z,52.78
2022-08-28T11:34:59.983Z,52.65
2022-08-28T11:36:03.975Z,52.31
2022-08-28T11:37:06.988Z,51.85
2022-08-28T11:38:09.322Z,51.49
2022-08-28T11:39:22.876Z,51.59
2022-08-28T11:40:56.527Z,51.64
2022-08-28T11:42:35.070Z,52.19
2022-08-28T11:43:40.405Z,52.71
2022-08-28T11:44:45.026Z,53.02
2022-08-28T11:46:13.374Z,53.71
2022-08-28T11:47:44.891Z,54.37
2022-08-28T11:48:51.239Z,54.72
2022-08-28T11:49:54.670Z,54.90
2022-08-28T11:51:00.419Z,55.19
2022-08-28T11:52:13.190Z,55.24
2022-08-28T11:53:43.049Z,55.86
2022-08-28T11:54:51.693Z,55.85
2022-08-28T11:56:37.169Z,55.51
2022-08-28T11:57:55.726Z,55.25
2022-08-28T11:59:08.089Z,55.09
2022-08-28T12:00:23.671Z,54.17
2022-08-28T12:01:31.972Z,53.71
2022-08-28T12:03:02.936Z,52.92
2022-08-28T12:04:09.187Z,52.81
2022-08-28T12:05:33.636Z,52.11
2022-08-28T12:07:17.367Z,51.32
2022-08-28T12:09:05.977Z,50.79
2022-08-28T12:10:57.021Z,48.73
2022-08-28T12:12:01.476Z,49.27
2022-08-28T12:13:05.565Z,48.94
2022-08-28T12:14:08.414Z,49.15
2022-08-28T12:15:12.546Z,48.72
2022-08-28T12:16:15.794Z,48.51
2022-08-28T12:17:31.261Z,48.44
2022-08-28T12:19:04.082Z,48.23
2022-08-28T12:20:11.517Z,48.68
2022-08-28T12:21:17.471Z,48.42
2022-08-28T12:22:22.760Z,48.87
2022-08-28T12:23:34.694Z,48.56
2022-08-28T12:24:45.579Z,48.57
2022-08-28T12:25:47.702Z,48.60
2022-08-28T12:26:56.228Z,48.61
2022-08-28T12:28:07.996Z,49.32
2022-08-28T12:29:29.360Z,48.90
2022-08-28T12:30:40.839Z,49.39
2022-08-28T12:32:22.035Z,49.76
2022-08-28T12:33:31.942Z,49.85
2022-08-28T12:34:43.631Z,49.92
2022-08-28T12:35:48.065Z,50.65
2022-08-28T12:36:56.601Z,51.46
2022-08-28T12:38:04.486Z,52.24
2022-08-28T12:39:06.755Z,52.58
2022-08-28T12:40:16.376Z,53.02
2022-08-28T12:41:20.989Z,53.35
2022-08-28T12:42:29.688Z,53.57
2022-08-28T12:43:43.274Z,53.78
2022-08-28T12:44:49.161Z,53.61
2022-08-28T12:45:55.572Z,53.76
2022-08-28T12:46:59.002Z,54.08
2022-08-28T12:48:14.083Z,54.58
2022-08-28T12:49:35.914Z,55.12
2022-08-28T12:50:39.890Z,54.93
2022-08-28T12:51:44.407Z,55.59
2022-08-28T12:52:50.185Z,56.03
2022-08-28T12:53:55.553Z,56.04
2022-08-28T12:54:58.809Z,56.25
2022-08-28T12:56:02.152Z,56.46
2022-08-28T12:57:06.564Z,56.61
2022-08-28T12:58:14.869Z,56.80
2022-08-28T12:59:27.104Z,56.49
2022-08-28T13:00:35.727Z,56.39
2022-08-28T13:01:40.046Z,56.47
2022-08-28T13:02:46.414Z,55.94
2022-08-28T13:03:55.761Z,56.44
2022-08-28T13:05:00.145Z,56.19
2022-08-28T13:06:06.536Z,55.36
2022-08-28T13:07:14.987Z,55.08
2022-08-28T13:08:22.442Z,54.60
2022-08-28T13:09:28.655Z,54.20
2022-08-28T13:10:34.820Z,53.68
2022-08-28T13:11:40.160Z,53.50
2022-08-28T13:12:56.096Z,53.66
2022-08-28T13:14:00.323Z,53.15
2022-08-28T13:15:02.638Z,53.32
2022-08-28T13:16:07.994Z,53.31
2022-08-28T13:17:11.793Z,52.97
2022-08-28T13:18:43.304Z,52.74
2022-08-28T13:19:46.299Z,52.80
2022-08-28T13:20:48.340Z,52.91
2022-08-28T13:21:58.812Z,53.07
2022-08-28T13:23:03.176Z,53.15
2022-08-28T13:24:26.281Z,53.44
2022-08-28T13:25:33.238Z,53.45
2022-08-28T13:26:37.665Z,53.83
2022-08-28T13:27:40.765Z,53.41
2022-08-28T13:28:43.815Z,53.52
2022-08-28T13:30:00.958Z,53.58
2022-08-28T13:31:04.932Z,53.56
2022-08-28T13:32:10.362Z,53.66
2022-08-28T13:33:21.902Z,53.85
2022-08-28T13:34:25.927Z,53.67
2022-08-28T13:35:38.955Z,53.79
2022-08-28T13:36:46.823Z,53.93
2022-08-28T13:37:51.692Z,53.90
2022-08-28T13:38:55.174Z,54.29
2022-08-28T13:39:58.243Z,53.55
2022-08-28T13:41:04.653Z,53.54
2022-08-28T13:42:10.468Z,53.26
2022-08-28T13:43:14.183Z,53.34
2022-08-28T13:44:29.549Z,51.51
2022-08-28T13:45:36.261Z,52.27
2022-08-28T13:46:46.374Z,51.89
2022-08-28T13:47:49.627Z,51.50
2022-08-28T13:48:51.655Z,50.69
2022-08-28T13:49:54.722Z,50.29
2022-08-28T13:50:59.442Z,50.45
2022-08-28T13:52:04.711Z,50.26
2022-08-28T13:53:07.085Z,50.24
2022-08-28T13:54:11.433Z,50.57
2022-08-28T13:55:15.086Z,50.52
2022-08-28T13:56:18.480Z,50.73
2022-08-28T13:57:24.456Z,51.19
2022-08-28T13:58:28.244Z,51.48
2022-08-28T13:59:30.910Z,51.42
2022-08-28T14:00:37.108Z,51.71
2022-08-28T14:01:57.069Z,51.93
2022-08-28T14:03:17.715Z,52.03
2022-08-28T14:04:20.824Z,52.48
2022-08-28T14:05:24.274Z,52.12
2022-08-28T14:06:31.777Z,51.41
2022-08-28T14:07:34.507Z,51.72
2022-08-28T14:08:37.609Z,52.09
2022-08-28T14:09:41.019Z,52.27
2022-08-28T14:10:44.763Z,52.23
2022-08-28T14:11:48.233Z,52.55
2022-08-28T14:12:51.286Z,52.42
2022-08-28T14:13:55.373Z,52.56
2022-08-28T14:14:59.032Z,52.70
2022-08-28T14:16:04.729Z,52.40